sensor_id;sensor_type;location;lat;lon;timestamp;P1;durP1;ratioP1;P2;durP2;ratioP2
24557;SDS011;12726;49.148;8.582;2023-02-26T00:01:55;4.05;;;1.60;;
24557;SDS011;12726;49.148;8.582;2023-02-26T00:04:45;2.10;;;1.40;;
24557;SDS011;12726;49.148;8.582;2023-02-26T00:07:31;3.72;;;1.50;;
24557;SDS011;12726;49.148;8.582;2023-02-26T00:10:16;2.33;;;1.30;;
24557;SDS011;12726;49.148;8.582;2023-02-26T00:13:02;2.67;;;1.60;;
24557;SDS011;12726;49.148;8.582;2023-02-26T00:15:48;5.22;;;1.48;;
24557;SDS011;12726;49.148;8.582;2023-02-26T00:18:41;2.55;;;1.67;;
24557;SDS011;12726;49.148;8.582;2023-02-26T00:21:28;2.00;;;1.40;;
24557;SDS011;12726;49.148;8.582;2023-02-26T00:24:14;3.95;;;1.77;;
24557;SDS011;12726;49.148;8.582;2023-02-26T00:27:00;2.95;;;1.73;;
24557;SDS011;12726;49.148;8.582;2023-02-26T00:29:45;1.40;;;1.30;;
24557;SDS011;12726;49.148;8.582;2023-02-26T00:32:32;4.32;;;2.53;;
24557;SDS011;12726;49.148;8.582;2023-02-26T00:35:18;3.63;;;2.00;;
24557;SDS011;12726;49.148;8.582;2023-02-26T00:38:05;2.90;;;2.15;;
24557;SDS011;12726;49.148;8.582;2023-02-26T00:40:54;4.32;;;2.10;;
24557;SDS011;12726;49.148;8.582;2023-02-26T00:43:39;3.47;;;2.15;;
24557;SDS011;12726;49.148;8.582;2023-02-26T00:46:34;3.20;;;1.70;;
24557;SDS011;12726;49.148;8.582;2023-02-26T00:49:26;5.15;;;1.92;;
24557;SDS011;12726;49.148;8.582;2023-02-26T00:52:28;4.40;;;2.08;;
24557;SDS011;12726;49.148;8.582;2023-02-26T00:55:21;4.65;;;2.50;;
24557;SDS011;12726;49.148;8.582;2023-02-26T00:58:07;4.85;;;2.20;;
24557;SDS011;12726;49.148;8.582;2023-02-26T01:00:52;4.78;;;2.47;;
24557;SDS011;12726;49.148;8.582;2023-02-26T01:03:38;5.88;;;2.28;;
24557;SDS011;12726;49.148;8.582;2023-02-26T01:06:24;6.80;;;2.45;;
24557;SDS011;12726;49.148;8.582;2023-02-26T01:09:15;6.15;;;3.10;;
24557;SDS011;12726;49.148;8.582;2023-02-26T01:12:08;5.78;;;2.40;;
24557;SDS011;12726;49.148;8.582;2023-02-26T01:14:56;4.57;;;2.40;;
24557;SDS011;12726;49.148;8.582;2023-02-26T01:17:43;5.10;;;2.63;;
24557;SDS011;12726;49.148;8.582;2023-02-26T01:20:33;6.13;;;2.33;;
24557;SDS011;12726;49.148;8.582;2023-02-26T01:23:24;7.18;;;2.78;;
24557;SDS011;12726;49.148;8.582;2023-02-26T01:26:11;7.40;;;2.83;;
24557;SDS011;12726;49.148;8.582;2023-02-26T01:29:04;3.65;;;2.47;;
24557;SDS011;12726;49.148;8.582;2023-02-26T01:31:51;6.55;;;3.10;;
24557;SDS011;12726;49.148;8.582;2023-02-26T01:34:43;5.82;;;2.38;;
24557;SDS011;12726;49.148;8.582;2023-02-26T01:37:38;3.22;;;1.75;;
24557;SDS011;12726;49.148;8.582;2023-02-26T01:40:45;3.33;;;2.05;;
24557;SDS011;12726;49.148;8.582;2023-02-26T01:43:50;4.57;;;2.20;;
24557;SDS011;12726;49.148;8.582;2023-02-26T01:46:53;4.13;;;2.28;;
24557;SDS011;12726;49.148;8.582;2023-02-26T01:49:56;3.35;;;2.00;;
24557;SDS011;12726;49.148;8.582;2023-02-26T01:56:05;6.70;;;2.72;;
24557;SDS011;12726;49.148;8.582;2023-02-26T01:58:56;3.10;;;1.75;;
24557;SDS011;12726;49.148;8.582;2023-02-26T02:01:43;6.93;;;2.75;;
24557;SDS011;12726;49.148;8.582;2023-02-26T02:04:30;7.68;;;2.45;;
24557;SDS011;12726;49.148;8.582;2023-02-26T02:07:17;6.03;;;2.22;;
24557;SDS011;12726;49.148;8.582;2023-02-26T02:10:02;4.78;;;2.47;;
24557;SDS011;12726;49.148;8.582;2023-02-26T02:12:54;5.05;;;1.90;;
24557;SDS011;12726;49.148;8.582;2023-02-26T02:15:48;3.92;;;2.00;;
24557;SDS011;12726;49.148;8.582;2023-02-26T02:21:34;4.00;;;1.80;;
24557;SDS011;12726;49.148;8.582;2023-02-26T02:24:34;7.07;;;2.30;;
24557;SDS011;12726;49.148;8.582;2023-02-26T02:27:34;4.05;;;2.65;;
24557;SDS011;12726;49.148;8.582;2023-02-26T02:30:32;3.58;;;2.35;;
24557;SDS011;12726;49.148;8.582;2023-02-26T02:33:25;5.97;;;2.53;;
24557;SDS011;12726;49.148;8.582;2023-02-26T02:36:19;7.00;;;2.58;;
24557;SDS011;12726;49.148;8.582;2023-02-26T02:39:12;3.22;;;1.88;;
24557;SDS011;12726;49.148;8.582;2023-02-26T02:42:02;4.28;;;1.98;;
24557;SDS011;12726;49.148;8.582;2023-02-26T02:44:52;4.38;;;1.90;;
24557;SDS011;12726;49.148;8.582;2023-02-26T02:47:42;3.53;;;2.00;;
24557;SDS011;12726;49.148;8.582;2023-02-26T02:50:34;4.35;;;1.60;;
24557;SDS011;12726;49.148;8.582;2023-02-26T02:53:24;5.32;;;2.22;;
24557;SDS011;12726;49.148;8.582;2023-02-26T02:56:15;4.32;;;2.10;;
24557;SDS011;12726;49.148;8.582;2023-02-26T02:59:05;3.53;;;1.60;;
24557;SDS011;12726;49.148;8.582;2023-02-26T03:02:01;4.30;;;1.55;;
24557;SDS011;12726;49.148;8.582;2023-02-26T03:04:51;3.42;;;1.85;;
24557;SDS011;12726;49.148;8.582;2023-02-26T03:07:39;6.55;;;2.20;;
24557;SDS011;12726;49.148;8.582;2023-02-26T03:10:29;6.20;;;2.43;;
24557;SDS011;12726;49.148;8.582;2023-02-26T03:13:15;5.13;;;2.00;;
24557;SDS011;12726;49.148;8.582;2023-02-26T03:16:05;2.22;;;1.70;;
24557;SDS011;12726;49.148;8.582;2023-02-26T03:19:03;6.70;;;2.08;;
24557;SDS011;12726;49.148;8.582;2023-02-26T03:21:56;2.65;;;1.80;;
24557;SDS011;12726;49.148;8.582;2023-02-26T03:24:50;4.32;;;2.13;;
24557;SDS011;12726;49.148;8.582;2023-02-26T03:27:42;2.25;;;1.73;;
24557;SDS011;12726;49.148;8.582;2023-02-26T03:33:22;3.80;;;1.98;;
24557;SDS011;12726;49.148;8.582;2023-02-26T03:36:13;2.97;;;2.00;;
24557;SDS011;12726;49.148;8.582;2023-02-26T03:39:04;3.97;;;2.33;;
24557;SDS011;12726;49.148;8.582;2023-02-26T03:41:58;4.47;;;2.08;;
24557;SDS011;12726;49.148;8.582;2023-02-26T03:44:47;4.15;;;1.90;;
24557;SDS011;12726;49.148;8.582;2023-02-26T03:47:37;4.30;;;1.80;;
24557;SDS011;12726;49.148;8.582;2023-02-26T03:50:26;3.40;;;1.90;;
24557;SDS011;12726;49.148;8.582;2023-02-26T03:53:16;2.22;;;2.03;;
24557;SDS011;12726;49.148;8.582;2023-02-26T03:56:06;6.05;;;2.58;;
24557;SDS011;12726;49.148;8.582;2023-02-26T03:58:58;4.22;;;2.45;;
24557;SDS011;12726;49.148;8.582;2023-02-26T04:01:46;4.38;;;2.45;;
24557;SDS011;12726;49.148;8.582;2023-02-26T04:04:38;8.10;;;3.17;;
24557;SDS011;12726;49.148;8.582;2023-02-26T04:07:28;6.05;;;2.63;;
24557;SDS011;12726;49.148;8.582;2023-02-26T04:10:14;5.78;;;3.40;;
24557;SDS011;12726;49.148;8.582;2023-02-26T04:13:04;6.57;;;3.13;;
24557;SDS011;12726;49.148;8.582;2023-02-26T04:15:53;5.68;;;3.08;;
24557;SDS011;12726;49.148;8.582;2023-02-26T04:18:38;8.43;;;3.95;;
24557;SDS011;12726;49.148;8.582;2023-02-26T04:21:25;6.07;;;3.17;;
24557;SDS011;12726;49.148;8.582;2023-02-26T04:24:10;6.03;;;3.08;;
24557;SDS011;12726;49.148;8.582;2023-02-26T04:26:55;4.38;;;2.90;;
24557;SDS011;12726;49.148;8.582;2023-02-26T04:29:41;6.72;;;3.55;;
24557;SDS011;12726;49.148;8.582;2023-02-26T04:32:27;6.50;;;3.30;;
24557;SDS011;12726;49.148;8.582;2023-02-26T04:35:13;6.35;;;2.88;;
24557;SDS011;12726;49.148;8.582;2023-02-26T04:37:58;8.43;;;3.90;;
24557;SDS011;12726;49.148;8.582;2023-02-26T04:40:44;8.57;;;3.72;;
24557;SDS011;12726;49.148;8.582;2023-02-26T04:43:30;7.13;;;3.65;;
24557;SDS011;12726;49.148;8.582;2023-02-26T04:46:15;11.30;;;4.00;;
24557;SDS011;12726;49.148;8.582;2023-02-26T04:49:02;9.07;;;4.45;;
24557;SDS011;12726;49.148;8.582;2023-02-26T04:51:47;9.48;;;3.75;;
24557;SDS011;12726;49.148;8.582;2023-02-26T04:54:32;7.72;;;3.45;;
24557;SDS011;12726;49.148;8.582;2023-02-26T04:57:18;8.40;;;4.38;;
24557;SDS011;12726;49.148;8.582;2023-02-26T05:00:03;8.68;;;4.20;;
24557;SDS011;12726;49.148;8.582;2023-02-26T05:02:50;6.20;;;3.03;;
24557;SDS011;12726;49.148;8.582;2023-02-26T05:05:37;4.53;;;2.70;;
24557;SDS011;12726;49.148;8.582;2023-02-26T05:08:22;5.05;;;2.70;;
24557;SDS011;12726;49.148;8.582;2023-02-26T05:11:08;9.32;;;3.15;;
24557;SDS011;12726;49.148;8.582;2023-02-26T05:13:53;5.15;;;3.20;;
24557;SDS011;12726;49.148;8.582;2023-02-26T05:16:38;5.75;;;2.72;;
24557;SDS011;12726;49.148;8.582;2023-02-26T05:19:23;3.90;;;2.38;;
24557;SDS011;12726;49.148;8.582;2023-02-26T05:22:10;5.05;;;2.50;;
24557;SDS011;12726;49.148;8.582;2023-02-26T05:24:55;4.28;;;2.60;;
24557;SDS011;12726;49.148;8.582;2023-02-26T05:27:40;4.05;;;2.28;;
24557;SDS011;12726;49.148;8.582;2023-02-26T05:30:26;4.65;;;2.58;;
24557;SDS011;12726;49.148;8.582;2023-02-26T05:33:11;5.88;;;3.00;;
24557;SDS011;12726;49.148;8.582;2023-02-26T05:35:57;6.80;;;2.90;;
24557;SDS011;12726;49.148;8.582;2023-02-26T05:38:44;7.90;;;3.80;;
24557;SDS011;12726;49.148;8.582;2023-02-26T05:41:29;6.85;;;2.88;;
24557;SDS011;12726;49.148;8.582;2023-02-26T05:44:15;5.75;;;2.75;;
24557;SDS011;12726;49.148;8.582;2023-02-26T05:47:00;5.10;;;2.70;;
24557;SDS011;12726;49.148;8.582;2023-02-26T05:49:45;5.22;;;2.50;;
24557;SDS011;12726;49.148;8.582;2023-02-26T05:52:31;4.28;;;2.65;;
24557;SDS011;12726;49.148;8.582;2023-02-26T05:55:18;3.80;;;2.13;;
24557;SDS011;12726;49.148;8.582;2023-02-26T05:58:03;3.67;;;2.55;;
24557;SDS011;12726;49.148;8.582;2023-02-26T06:00:48;6.28;;;2.45;;
24557;SDS011;12726;49.148;8.582;2023-02-26T06:03:34;5.72;;;2.92;;
24557;SDS011;12726;49.148;8.582;2023-02-26T06:06:19;3.67;;;2.55;;
24557;SDS011;12726;49.148;8.582;2023-02-26T06:09:04;4.80;;;2.90;;
24557;SDS011;12726;49.148;8.582;2023-02-26T06:11:51;4.05;;;2.58;;
24557;SDS011;12726;49.148;8.582;2023-02-26T06:14:37;6.57;;;2.97;;
24557;SDS011;12726;49.148;8.582;2023-02-26T06:17:22;5.25;;;2.60;;
24557;SDS011;12726;49.148;8.582;2023-02-26T06:20:09;7.55;;;3.80;;
24557;SDS011;12726;49.148;8.582;2023-02-26T06:22:55;10.32;;;5.28;;
24557;SDS011;12726;49.148;8.582;2023-02-26T06:25:40;17.05;;;6.18;;
24557;SDS011;12726;49.148;8.582;2023-02-26T06:28:27;13.73;;;6.03;;
24557;SDS011;12726;49.148;8.582;2023-02-26T06:31:13;14.40;;;6.15;;
24557;SDS011;12726;49.148;8.582;2023-02-26T06:33:58;13.35;;;6.15;;
24557;SDS011;12726;49.148;8.582;2023-02-26T06:36:43;13.10;;;6.93;;
24557;SDS011;12726;49.148;8.582;2023-02-26T06:39:29;23.23;;;8.98;;
24557;SDS011;12726;49.148;8.582;2023-02-26T06:42:15;23.88;;;9.60;;
24557;SDS011;12726;49.148;8.582;2023-02-26T06:45:02;20.73;;;7.35;;
24557;SDS011;12726;49.148;8.582;2023-02-26T06:47:48;17.95;;;5.65;;
24557;SDS011;12726;49.148;8.582;2023-02-26T06:50:33;19.40;;;6.32;;
24557;SDS011;12726;49.148;8.582;2023-02-26T06:53:19;10.38;;;5.63;;
24557;SDS011;12726;49.148;8.582;2023-02-26T06:56:04;9.45;;;4.43;;
24557;SDS011;12726;49.148;8.582;2023-02-26T06:58:50;9.10;;;3.47;;
24557;SDS011;12726;49.148;8.582;2023-02-26T07:01:37;7.55;;;3.65;;
24557;SDS011;12726;49.148;8.582;2023-02-26T07:04:22;5.05;;;3.00;;
24557;SDS011;12726;49.148;8.582;2023-02-26T07:07:08;5.80;;;2.83;;
24557;SDS011;12726;49.148;8.582;2023-02-26T07:09:54;4.03;;;2.70;;
24557;SDS011;12726;49.148;8.582;2023-02-26T07:12:39;7.35;;;2.80;;
24557;SDS011;12726;49.148;8.582;2023-02-26T07:15:24;7.35;;;3.00;;
24557;SDS011;12726;49.148;8.582;2023-02-26T07:18:11;7.00;;;2.30;;
24557;SDS011;12726;49.148;8.582;2023-02-26T07:20:57;6.05;;;2.63;;
24557;SDS011;12726;49.148;8.582;2023-02-26T07:23:42;7.78;;;2.40;;
24557;SDS011;12726;49.148;8.582;2023-02-26T07:26:27;4.95;;;1.95;;
24557;SDS011;12726;49.148;8.582;2023-02-26T07:29:13;3.47;;;2.15;;
24557;SDS011;12726;49.148;8.582;2023-02-26T07:31:58;3.85;;;2.15;;
24557;SDS011;12726;49.148;8.582;2023-02-26T07:34:45;3.08;;;2.00;;
24557;SDS011;12726;49.148;8.582;2023-02-26T07:37:30;5.05;;;1.95;;
24557;SDS011;12726;49.148;8.582;2023-02-26T07:40:16;2.85;;;1.90;;
24557;SDS011;12726;49.148;8.582;2023-02-26T07:43:02;4.40;;;1.92;;
24557;SDS011;12726;49.148;8.582;2023-02-26T07:45:48;4.07;;;1.80;;
24557;SDS011;12726;49.148;8.582;2023-02-26T07:48:34;4.28;;;1.80;;
24557;SDS011;12726;49.148;8.582;2023-02-26T07:51:21;4.85;;;1.90;;
24557;SDS011;12726;49.148;8.582;2023-02-26T07:54:07;5.45;;;2.15;;
24557;SDS011;12726;49.148;8.582;2023-02-26T07:56:52;4.35;;;2.13;;
24557;SDS011;12726;49.148;8.582;2023-02-26T07:59:37;3.80;;;2.20;;
24557;SDS011;12726;49.148;8.582;2023-02-26T08:02:23;4.28;;;1.73;;
24557;SDS011;12726;49.148;8.582;2023-02-26T08:05:08;4.05;;;1.90;;
24557;SDS011;12726;49.148;8.582;2023-02-26T08:07:55;5.95;;;1.98;;
24557;SDS011;12726;49.148;8.582;2023-02-26T08:10:41;7.70;;;2.00;;
24557;SDS011;12726;49.148;8.582;2023-02-26T08:13:27;5.38;;;1.90;;
24557;SDS011;12726;49.148;8.582;2023-02-26T08:16:12;5.07;;;1.65;;
24557;SDS011;12726;49.148;8.582;2023-02-26T08:18:58;3.05;;;1.98;;
24557;SDS011;12726;49.148;8.582;2023-02-26T08:21:43;4.72;;;2.30;;
24557;SDS011;12726;49.148;8.582;2023-02-26T08:24:30;3.95;;;1.75;;
24557;SDS011;12726;49.148;8.582;2023-02-26T08:27:16;6.40;;;2.08;;
24557;SDS011;12726;49.148;8.582;2023-02-26T08:30:01;6.28;;;2.05;;
24557;SDS011;12726;49.148;8.582;2023-02-26T08:32:46;7.15;;;2.60;;
24557;SDS011;12726;49.148;8.582;2023-02-26T08:35:32;6.13;;;2.45;;
24557;SDS011;12726;49.148;8.582;2023-02-26T08:38:18;3.90;;;2.03;;
24557;SDS011;12726;49.148;8.582;2023-02-26T08:41:04;2.90;;;1.50;;
24557;SDS011;12726;49.148;8.582;2023-02-26T08:43:50;2.47;;;1.13;;
24557;SDS011;12726;49.148;8.582;2023-02-26T08:46:36;3.63;;;1.70;;
24557;SDS011;12726;49.148;8.582;2023-02-26T08:49:21;4.97;;;1.50;;
24557;SDS011;12726;49.148;8.582;2023-02-26T08:52:06;2.97;;;1.30;;
24557;SDS011;12726;49.148;8.582;2023-02-26T08:54:52;3.22;;;1.50;;
24557;SDS011;12726;49.148;8.582;2023-02-26T08:57:38;3.83;;;1.80;;
24557;SDS011;12726;49.148;8.582;2023-02-26T09:00:24;2.90;;;1.40;;
24557;SDS011;12726;49.148;8.582;2023-02-26T09:03:10;3.58;;;1.80;;
24557;SDS011;12726;49.148;8.582;2023-02-26T09:05:55;4.20;;;1.50;;
24557;SDS011;12726;49.148;8.582;2023-02-26T09:08:40;1.25;;;0.80;;
24557;SDS011;12726;49.148;8.582;2023-02-26T09:11:26;3.45;;;1.48;;
24557;SDS011;12726;49.148;8.582;2023-02-26T09:14:14;1.85;;;1.10;;
24557;SDS011;12726;49.148;8.582;2023-02-26T09:17:00;1.80;;;1.10;;
24557;SDS011;12726;49.148;8.582;2023-02-26T09:19:45;3.90;;;1.10;;
24557;SDS011;12726;49.148;8.582;2023-02-26T09:22:31;1.95;;;1.00;;
24557;SDS011;12726;49.148;8.582;2023-02-26T09:25:16;2.33;;;1.45;;
24557;SDS011;12726;49.148;8.582;2023-02-26T09:28:01;3.38;;;1.00;;
24557;SDS011;12726;49.148;8.582;2023-02-26T09:30:51;1.73;;;1.48;;
24557;SDS011;12726;49.148;8.582;2023-02-26T09:33:36;2.45;;;1.17;;
24557;SDS011;12726;49.148;8.582;2023-02-26T09:36:22;2.00;;;1.17;;
24557;SDS011;12726;49.148;8.582;2023-02-26T09:39:07;2.20;;;1.10;;
24557;SDS011;12726;49.148;8.582;2023-02-26T09:41:53;2.10;;;1.42;;
24557;SDS011;12726;49.148;8.582;2023-02-26T09:44:41;1.63;;;1.00;;
24557;SDS011;12726;49.148;8.582;2023-02-26T09:47:29;4.88;;;1.10;;
24557;SDS011;12726;49.148;8.582;2023-02-26T09:50:23;3.45;;;1.30;;
24557;SDS011;12726;49.148;8.582;2023-02-26T09:53:13;2.55;;;1.08;;
24557;SDS011;12726;49.148;8.582;2023-02-26T09:56:04;2.15;;;1.05;;
24557;SDS011;12726;49.148;8.582;2023-02-26T09:58:54;3.42;;;1.40;;
24557;SDS011;12726;49.148;8.582;2023-02-26T10:01:43;2.53;;;1.02;;
24557;SDS011;12726;49.148;8.582;2023-02-26T10:04:40;3.00;;;1.40;;
24557;SDS011;12726;49.148;8.582;2023-02-26T10:07:36;6.70;;;1.30;;
24557;SDS011;12726;49.148;8.582;2023-02-26T10:10:28;3.22;;;1.38;;
24557;SDS011;12726;49.148;8.582;2023-02-26T10:16:08;3.78;;;1.55;;
24557;SDS011;12726;49.148;8.582;2023-02-26T10:18:58;3.47;;;1.40;;
24557;SDS011;12726;49.148;8.582;2023-02-26T10:21:50;2.10;;;0.95;;
24557;SDS011;12726;49.148;8.582;2023-02-26T10:24:39;5.10;;;1.30;;
24557;SDS011;12726;49.148;8.582;2023-02-26T10:27:33;2.88;;;1.40;;
24557;SDS011;12726;49.148;8.582;2023-02-26T10:30:26;1.77;;;1.13;;
24557;SDS011;12726;49.148;8.582;2023-02-26T10:36:04;3.15;;;1.05;;
24557;SDS011;12726;49.148;8.582;2023-02-26T10:39:01;2.90;;;1.63;;
24557;SDS011;12726;49.148;8.582;2023-02-26T10:42:00;4.97;;;1.85;;
24557;SDS011;12726;49.148;8.582;2023-02-26T10:44:51;3.72;;;2.05;;
24557;SDS011;12726;49.148;8.582;2023-02-26T10:48:00;4.32;;;2.53;;
24557;SDS011;12726;49.148;8.582;2023-02-26T10:50:56;3.30;;;1.55;;
24557;SDS011;12726;49.148;8.582;2023-02-26T10:53:44;3.13;;;1.10;;
24557;SDS011;12726;49.148;8.582;2023-02-26T10:56:35;1.98;;;1.00;;
24557;SDS011;12726;49.148;8.582;2023-02-26T10:59:21;1.58;;;0.90;;
24557;SDS011;12726;49.148;8.582;2023-02-26T11:02:27;0.88;;;0.82;;
24557;SDS011;12726;49.148;8.582;2023-02-26T11:05:19;3.20;;;1.30;;
24557;SDS011;12726;49.148;8.582;2023-02-26T11:08:09;1.85;;;1.00;;
24557;SDS011;12726;49.148;8.582;2023-02-26T11:11:00;3.85;;;1.17;;
24557;SDS011;12726;49.148;8.582;2023-02-26T11:13:48;1.15;;;0.70;;
24557;SDS011;12726;49.148;8.582;2023-02-26T11:16:33;1.58;;;1.05;;
24557;SDS011;12726;49.148;8.582;2023-02-26T11:19:19;1.27;;;0.80;;
24557;SDS011;12726;49.148;8.582;2023-02-26T11:22:11;2.40;;;0.70;;
24557;SDS011;12726;49.148;8.582;2023-02-26T11:24:58;1.75;;;0.90;;
24557;SDS011;12726;49.148;8.582;2023-02-26T11:27:44;2.15;;;1.05;;
24557;SDS011;12726;49.148;8.582;2023-02-26T11:30:36;0.80;;;0.70;;
24557;SDS011;12726;49.148;8.582;2023-02-26T11:33:23;1.10;;;0.70;;
24557;SDS011;12726;49.148;8.582;2023-02-26T11:36:13;1.23;;;0.90;;
24557;SDS011;12726;49.148;8.582;2023-02-26T11:39:00;1.48;;;0.93;;
24557;SDS011;12726;49.148;8.582;2023-02-26T11:41:49;0.90;;;0.73;;
24557;SDS011;12726;49.148;8.582;2023-02-26T11:44:37;1.95;;;0.88;;
24557;SDS011;12726;49.148;8.582;2023-02-26T11:47:27;2.05;;;0.80;;
24557;SDS011;12726;49.148;8.582;2023-02-26T11:50:15;1.95;;;0.80;;
24557;SDS011;12726;49.148;8.582;2023-02-26T11:53:06;1.05;;;0.70;;
24557;SDS011;12726;49.148;8.582;2023-02-26T11:56:01;0.60;;;0.60;;
24557;SDS011;12726;49.148;8.582;2023-02-26T11:58:52;1.63;;;0.90;;
24557;SDS011;12726;49.148;8.582;2023-02-26T12:01:39;0.75;;;0.70;;
24557;SDS011;12726;49.148;8.582;2023-02-26T12:04:27;1.25;;;0.85;;
24557;SDS011;12726;49.148;8.582;2023-02-26T12:07:13;1.65;;;1.10;;
24557;SDS011;12726;49.148;8.582;2023-02-26T12:09:59;2.22;;;0.80;;
24557;SDS011;12726;49.148;8.582;2023-02-26T12:12:47;1.50;;;0.82;;
24557;SDS011;12726;49.148;8.582;2023-02-26T12:15:41;5.40;;;1.70;;
24557;SDS011;12726;49.148;8.582;2023-02-26T12:18:40;4.45;;;1.60;;
24557;SDS011;12726;49.148;8.582;2023-02-26T12:21:48;1.60;;;0.95;;
24557;SDS011;12726;49.148;8.582;2023-02-26T12:24:58;1.45;;;1.10;;
24557;SDS011;12726;49.148;8.582;2023-02-26T12:27:57;1.35;;;1.13;;
24557;SDS011;12726;49.148;8.582;2023-02-26T12:31:02;1.42;;;0.68;;
24557;SDS011;12726;49.148;8.582;2023-02-26T12:34:03;2.10;;;1.33;;
24557;SDS011;12726;49.148;8.582;2023-02-26T12:37:07;6.75;;;1.30;;
24557;SDS011;12726;49.148;8.582;2023-02-26T12:40:17;2.15;;;0.98;;
24557;SDS011;12726;49.148;8.582;2023-02-26T12:43:19;2.97;;;0.90;;
24557;SDS011;12726;49.148;8.582;2023-02-26T12:46:18;3.15;;;2.03;;
24557;SDS011;12726;49.148;8.582;2023-02-26T12:49:27;6.32;;;2.00;;
24557;SDS011;12726;49.148;8.582;2023-02-26T12:52:35;4.97;;;2.13;;
24557;SDS011;12726;49.148;8.582;2023-02-26T12:55:35;2.60;;;1.00;;
24557;SDS011;12726;49.148;8.582;2023-02-26T12:58:29;1.33;;;0.77;;
24557;SDS011;12726;49.148;8.582;2023-02-26T13:01:27;1.70;;;0.90;;
24557;SDS011;12726;49.148;8.582;2023-02-26T13:04:57;1.38;;;0.80;;
24557;SDS011;12726;49.148;8.582;2023-02-26T13:08:03;1.70;;;0.90;;
24557;SDS011;12726;49.148;8.582;2023-02-26T13:10:56;1.10;;;0.80;;
24557;SDS011;12726;49.148;8.582;2023-02-26T13:13:56;1.40;;;1.00;;
24557;SDS011;12726;49.148;8.582;2023-02-26T13:16:50;3.15;;;1.38;;
24557;SDS011;12726;49.148;8.582;2023-02-26T13:19:41;3.40;;;1.02;;
24557;SDS011;12726;49.148;8.582;2023-02-26T13:22:31;4.63;;;0.80;;
24557;SDS011;12726;49.148;8.582;2023-02-26T13:25:24;1.58;;;0.90;;
24557;SDS011;12726;49.148;8.582;2023-02-26T13:28:18;1.20;;;0.77;;
24557;SDS011;12726;49.148;8.582;2023-02-26T13:31:08;1.27;;;0.63;;
24557;SDS011;12726;49.148;8.582;2023-02-26T13:33:58;1.42;;;0.93;;
24557;SDS011;12726;49.148;8.582;2023-02-26T13:36:46;1.42;;;0.85;;
24557;SDS011;12726;49.148;8.582;2023-02-26T13:39:37;1.63;;;0.82;;
24557;SDS011;12726;49.148;8.582;2023-02-26T13:42:32;0.73;;;0.60;;
24557;SDS011;12726;49.148;8.582;2023-02-26T13:45:26;0.73;;;0.60;;
24557;SDS011;12726;49.148;8.582;2023-02-26T13:48:26;1.42;;;0.93;;
24557;SDS011;12726;49.148;8.582;2023-02-26T13:51:23;1.27;;;0.80;;
24557;SDS011;12726;49.148;8.582;2023-02-26T13:54:27;2.33;;;1.25;;
24557;SDS011;12726;49.148;8.582;2023-02-26T13:57:26;1.85;;;1.15;;
24557;SDS011;12726;49.148;8.582;2023-02-26T14:00:25;1.02;;;0.70;;
24557;SDS011;12726;49.148;8.582;2023-02-26T14:03:27;1.23;;;0.90;;
24557;SDS011;12726;49.148;8.582;2023-02-26T14:09:35;0.50;;;0.50;;
24557;SDS011;12726;49.148;8.582;2023-02-26T14:12:36;1.50;;;0.90;;
24557;SDS011;12726;49.148;8.582;2023-02-26T14:15:27;3.53;;;1.63;;
24557;SDS011;12726;49.148;8.582;2023-02-26T14:18:34;2.08;;;1.00;;
24557;SDS011;12726;49.148;8.582;2023-02-26T14:21:30;1.20;;;0.77;;
24557;SDS011;12726;49.148;8.582;2023-02-26T14:24:21;2.13;;;0.80;;
24557;SDS011;12726;49.148;8.582;2023-02-26T14:30:26;0.95;;;0.80;;
24557;SDS011;12726;49.148;8.582;2023-02-26T14:33:14;1.23;;;0.68;;
24557;SDS011;12726;49.148;8.582;2023-02-26T14:36:02;0.57;;;0.50;;
24557;SDS011;12726;49.148;8.582;2023-02-26T14:38:50;1.58;;;0.90;;
24557;SDS011;12726;49.148;8.582;2023-02-26T14:41:37;0.90;;;0.75;;
24557;SDS011;12726;49.148;8.582;2023-02-26T14:44:24;1.35;;;1.00;;
24557;SDS011;12726;49.148;8.582;2023-02-26T14:47:14;0.82;;;0.65;;
24557;SDS011;12726;49.148;8.582;2023-02-26T14:50:00;2.10;;;1.10;;
24557;SDS011;12726;49.148;8.582;2023-02-26T14:53:01;1.27;;;0.70;;
24557;SDS011;12726;49.148;8.582;2023-02-26T14:56:09;2.88;;;1.00;;
24557;SDS011;12726;49.148;8.582;2023-02-26T14:59:04;0.52;;;0.50;;
24557;SDS011;12726;49.148;8.582;2023-02-26T15:02:03;1.75;;;0.80;;
24557;SDS011;12726;49.148;8.582;2023-02-26T15:08:30;1.30;;;0.77;;
24557;SDS011;12726;49.148;8.582;2023-02-26T15:14:45;0.90;;;0.80;;
24557;SDS011;12726;49.148;8.582;2023-02-26T15:17:47;5.25;;;2.60;;
24557;SDS011;12726;49.148;8.582;2023-02-26T15:20:46;1.50;;;0.80;;
24557;SDS011;12726;49.148;8.582;2023-02-26T15:23:41;0.60;;;0.50;;
24557;SDS011;12726;49.148;8.582;2023-02-26T15:26:28;1.17;;;0.80;;
24557;SDS011;12726;49.148;8.582;2023-02-26T15:29:16;0.50;;;0.50;;
24557;SDS011;12726;49.148;8.582;2023-02-26T15:32:12;0.65;;;0.60;;
24557;SDS011;12726;49.148;8.582;2023-02-26T15:35:00;1.98;;;1.25;;
24557;SDS011;12726;49.148;8.582;2023-02-26T15:37:50;1.35;;;1.08;;
24557;SDS011;12726;49.148;8.582;2023-02-26T15:40:38;2.58;;;1.15;;
24557;SDS011;12726;49.148;8.582;2023-02-26T15:43:24;0.88;;;0.80;;
24557;SDS011;12726;49.148;8.582;2023-02-26T15:46:12;2.65;;;1.10;;
24557;SDS011;12726;49.148;8.582;2023-02-26T15:48:59;3.40;;;1.75;;
24557;SDS011;12726;49.148;8.582;2023-02-26T15:51:46;0.73;;;0.68;;
24557;SDS011;12726;49.148;8.582;2023-02-26T15:54:34;0.90;;;0.60;;
24557;SDS011;12726;49.148;8.582;2023-02-26T15:57:25;1.20;;;0.98;;
24557;SDS011;12726;49.148;8.582;2023-02-26T16:00:13;1.38;;;0.85;;
24557;SDS011;12726;49.148;8.582;2023-02-26T16:03:00;1.55;;;0.80;;
24557;SDS011;12726;49.148;8.582;2023-02-26T16:05:47;1.77;;;0.75;;
24557;SDS011;12726;49.148;8.582;2023-02-26T16:08:32;0.75;;;0.63;;
24557;SDS011;12726;49.148;8.582;2023-02-26T16:11:19;0.50;;;0.50;;
24557;SDS011;12726;49.148;8.582;2023-02-26T16:14:06;2.97;;;0.98;;
24557;SDS011;12726;49.148;8.582;2023-02-26T16:16:57;1.70;;;1.10;;
24557;SDS011;12726;49.148;8.582;2023-02-26T16:19:44;1.75;;;0.90;;
24557;SDS011;12726;49.148;8.582;2023-02-26T16:22:32;2.00;;;0.80;;
24557;SDS011;12726;49.148;8.582;2023-02-26T16:25:22;2.25;;;1.08;;
24557;SDS011;12726;49.148;8.582;2023-02-26T16:28:13;1.05;;;0.77;;
24557;SDS011;12726;49.148;8.582;2023-02-26T16:31:01;2.90;;;1.40;;
24557;SDS011;12726;49.148;8.582;2023-02-26T16:33:50;3.88;;;1.70;;
24557;SDS011;12726;49.148;8.582;2023-02-26T16:36:39;5.50;;;3.00;;
24557;SDS011;12726;49.148;8.582;2023-02-26T16:39:25;5.72;;;2.90;;
24557;SDS011;12726;49.148;8.582;2023-02-26T16:42:15;6.03;;;2.65;;
24557;SDS011;12726;49.148;8.582;2023-02-26T16:45:16;6.18;;;2.13;;
24557;SDS011;12726;49.148;8.582;2023-02-26T16:48:04;4.30;;;2.17;;
24557;SDS011;12726;49.148;8.582;2023-02-26T16:50:56;1.38;;;1.10;;
24557;SDS011;12726;49.148;8.582;2023-02-26T16:53:45;2.85;;;1.50;;
24557;SDS011;12726;49.148;8.582;2023-02-26T16:56:32;3.58;;;1.95;;
24557;SDS011;12726;49.148;8.582;2023-02-26T16:59:23;1.15;;;1.02;;
24557;SDS011;12726;49.148;8.582;2023-02-26T17:02:12;0.80;;;0.75;;
24557;SDS011;12726;49.148;8.582;2023-02-26T17:05:06;1.38;;;0.90;;
24557;SDS011;12726;49.148;8.582;2023-02-26T17:08:00;2.33;;;0.93;;
24557;SDS011;12726;49.148;8.582;2023-02-26T17:10:53;1.48;;;1.20;;
24557;SDS011;12726;49.148;8.582;2023-02-26T17:13:44;2.08;;;1.27;;
24557;SDS011;12726;49.148;8.582;2023-02-26T17:16:29;1.50;;;0.60;;
24557;SDS011;12726;49.148;8.582;2023-02-26T17:19:16;2.20;;;0.77;;
24557;SDS011;12726;49.148;8.582;2023-02-26T17:22:02;2.35;;;1.23;;
24557;SDS011;12726;49.148;8.582;2023-02-26T17:24:49;6.50;;;2.72;;
24557;SDS011;12726;49.148;8.582;2023-02-26T17:27:35;4.32;;;1.77;;
24557;SDS011;12726;49.148;8.582;2023-02-26T17:30:22;5.32;;;2.60;;
24557;SDS011;12726;49.148;8.582;2023-02-26T17:33:08;4.13;;;1.70;;